<?xml version="1.0" encoding="UTF-8" standalone="no" ?>
<gpx xmlns="http://www.topografix.com/GPX/1/1" xmlns:xsi="http://www.w3.org/2001/XMLSchema-instance" xsi:schemaLocation="http://www.topografix.com/GPX/1/1 http://www.topografix.com/GPX/1/1/gpx.xsd" version="1.1" creator="VisuGPX - https://www.visugpx.com">
  <metadata>
    <name>14567502-L ALPE DU GRAND SERRE G1</name>
  </metadata>
  <trk>
    <name><![CDATA[14567502-L ALPE DU GRAND SERRE G1]]></name>
    <trkseg>
      <trkpt lat="45.02838" lon="5.85792">
        <ele>1361</ele>
        <time>2022-05-28T11:58:00Z</time>
      </trkpt>
      <trkpt lat="45.02801" lon="5.85799">
        <ele>1360</ele>
        <time>2022-05-28T11:58:50Z</time>
      </trkpt>
      <trkpt lat="45.02791" lon="5.85762">
        <ele>1359</ele>
        <time>2022-05-28T11:59:27Z</time>
      </trkpt>
      <trkpt lat="45.02766" lon="5.85801">
        <ele>1359</ele>
        <time>2022-05-28T12:00:17Z</time>
      </trkpt>
      <trkpt lat="45.02742" lon="5.85792">
        <ele>1359</ele>
        <time>2022-05-28T12:00:50Z</time>
      </trkpt>
      <trkpt lat="45.02732" lon="5.85855">
        <ele>1361</ele>
        <time>2022-05-28T12:01:51Z</time>
      </trkpt>
      <trkpt lat="45.02727" lon="5.86">
        <ele>1366</ele>
        <time>2022-05-28T12:04:08Z</time>
      </trkpt>
      <trkpt lat="45.02742" lon="5.86069">
        <ele>1368</ele>
        <time>2022-05-28T12:05:16Z</time>
      </trkpt>
      <trkpt lat="45.02764" lon="5.86137">
        <ele>1371</ele>
        <time>2022-05-28T12:06:26Z</time>
      </trkpt>
      <trkpt lat="45.02803" lon="5.86197">
        <ele>1375</ele>
        <time>2022-05-28T12:07:43Z</time>
      </trkpt>
      <trkpt lat="45.02841" lon="5.86219">
        <ele>1378</ele>
        <time>2022-05-28T12:08:38Z</time>
      </trkpt>
      <trkpt lat="45.02879" lon="5.86224">
        <ele>1382</ele>
        <time>2022-05-28T12:09:29Z</time>
      </trkpt>
      <trkpt lat="45.02908" lon="5.86223">
        <ele>1386</ele>
        <time>2022-05-28T12:10:08Z</time>
      </trkpt>
      <trkpt lat="45.02905" lon="5.86257">
        <ele>1388</ele>
        <time>2022-05-28T12:10:40Z</time>
      </trkpt>
      <trkpt lat="45.02884" lon="5.86269">
        <ele>1388</ele>
        <time>2022-05-28T12:11:10Z</time>
      </trkpt>
      <trkpt lat="45.02863" lon="5.86289">
        <ele>1389</ele>
        <time>2022-05-28T12:11:44Z</time>
      </trkpt>
      <trkpt lat="45.02838" lon="5.86312">
        <ele>1390</ele>
        <time>2022-05-28T12:12:24Z</time>
      </trkpt>
      <trkpt lat="45.02829" lon="5.86295">
        <ele>1385</ele>
        <time>2022-05-28T12:12:44Z</time>
      </trkpt>
      <trkpt lat="45.0282" lon="5.86288">
        <ele>1384</ele>
        <time>2022-05-28T12:12:58Z</time>
      </trkpt>
      <trkpt lat="45.02778" lon="5.86295">
        <ele>1383</ele>
        <time>2022-05-28T12:13:54Z</time>
      </trkpt>
      <trkpt lat="45.02745" lon="5.86276">
        <ele>1378</ele>
        <time>2022-05-28T12:14:42Z</time>
      </trkpt>
      <trkpt lat="45.02716" lon="5.86297">
        <ele>1385</ele>
        <time>2022-05-28T12:15:25Z</time>
      </trkpt>
      <trkpt lat="45.0269" lon="5.86292">
        <ele>1387</ele>
        <time>2022-05-28T12:16:00Z</time>
      </trkpt>
      <trkpt lat="45.0267" lon="5.86286">
        <ele>1387</ele>
        <time>2022-05-28T12:16:27Z</time>
      </trkpt>
      <trkpt lat="45.02661" lon="5.86265">
        <ele>1382</ele>
        <time>2022-05-28T12:16:50Z</time>
      </trkpt>
      <trkpt lat="45.02674" lon="5.8625">
        <ele>1378</ele>
        <time>2022-05-28T12:17:13Z</time>
      </trkpt>
      <trkpt lat="45.02689" lon="5.86225">
        <ele>1375</ele>
        <time>2022-05-28T12:17:44Z</time>
      </trkpt>
      <trkpt lat="45.02724" lon="5.86139">
        <ele>1370</ele>
        <time>2022-05-28T12:19:17Z</time>
      </trkpt>
      <trkpt lat="45.02728" lon="5.86107">
        <ele>1369</ele>
        <time>2022-05-28T12:19:48Z</time>
      </trkpt>
      <trkpt lat="45.02739" lon="5.86067">
        <ele>1368</ele>
        <time>2022-05-28T12:20:29Z</time>
      </trkpt>
      <trkpt lat="45.0273" lon="5.8602">
        <ele>1366</ele>
        <time>2022-05-28T12:21:14Z</time>
      </trkpt>
      <trkpt lat="45.0273" lon="5.85935">
        <ele>1364</ele>
        <time>2022-05-28T12:22:35Z</time>
      </trkpt>
      <trkpt lat="45.02735" lon="5.85789">
        <ele>1360</ele>
        <time>2022-05-28T12:24:52Z</time>
      </trkpt>
      <trkpt lat="45.02719" lon="5.85785">
        <ele>1361</ele>
        <time>2022-05-28T12:25:14Z</time>
      </trkpt>
      <trkpt lat="45.02703" lon="5.85789">
        <ele>1362</ele>
        <time>2022-05-28T12:25:36Z</time>
      </trkpt>
      <trkpt lat="45.02698" lon="5.85773">
        <ele>1362</ele>
        <time>2022-05-28T12:25:52Z</time>
      </trkpt>
      <trkpt lat="45.02695" lon="5.8573">
        <ele>1362</ele>
        <time>2022-05-28T12:26:33Z</time>
      </trkpt>
      <trkpt lat="45.02691" lon="5.85689">
        <ele>1362</ele>
        <time>2022-05-28T12:27:12Z</time>
      </trkpt>
      <trkpt lat="45.02704" lon="5.85579">
        <ele>1363</ele>
        <time>2022-05-28T12:28:57Z</time>
      </trkpt>
      <trkpt lat="45.02703" lon="5.85493">
        <ele>1369</ele>
        <time>2022-05-28T12:30:18Z</time>
      </trkpt>
      <trkpt lat="45.02739" lon="5.85401">
        <ele>1368</ele>
        <time>2022-05-28T12:31:58Z</time>
      </trkpt>
      <trkpt lat="45.02768" lon="5.85316">
        <ele>1372</ele>
        <time>2022-05-28T12:33:27Z</time>
      </trkpt>
      <trkpt lat="45.02788" lon="5.85284">
        <ele>1370</ele>
        <time>2022-05-28T12:34:07Z</time>
      </trkpt>
      <trkpt lat="45.02831" lon="5.85236">
        <ele>1365</ele>
        <time>2022-05-28T12:35:20Z</time>
      </trkpt>
      <trkpt lat="45.02945" lon="5.85097">
        <ele>1361</ele>
        <time>2022-05-28T12:38:41Z</time>
      </trkpt>
      <trkpt lat="45.02969" lon="5.85076">
        <ele>1359</ele>
        <time>2022-05-28T12:39:19Z</time>
      </trkpt>
      <trkpt lat="45.02993" lon="5.85037">
        <ele>1359</ele>
        <time>2022-05-28T12:40:07Z</time>
      </trkpt>
      <trkpt lat="45.0307" lon="5.84908">
        <ele>1359</ele>
        <time>2022-05-28T12:42:47Z</time>
      </trkpt>
      <trkpt lat="45.03098" lon="5.84877">
        <ele>1358</ele>
        <time>2022-05-28T12:43:34Z</time>
      </trkpt>
      <trkpt lat="45.03102" lon="5.84863">
        <ele>1358</ele>
        <time>2022-05-28T12:43:48Z</time>
      </trkpt>
      <trkpt lat="45.03102" lon="5.84781">
        <ele>1366</ele>
        <time>2022-05-28T12:45:06Z</time>
      </trkpt>
      <trkpt lat="45.03108" lon="5.84706">
        <ele>1376</ele>
        <time>2022-05-28T12:46:17Z</time>
      </trkpt>
      <trkpt lat="45.0314" lon="5.84648">
        <ele>1382</ele>
        <time>2022-05-28T12:47:26Z</time>
      </trkpt>
      <trkpt lat="45.03195" lon="5.84574">
        <ele>1386</ele>
        <time>2022-05-28T12:49:07Z</time>
      </trkpt>
      <trkpt lat="45.03222" lon="5.84529">
        <ele>1387</ele>
        <time>2022-05-28T12:50:03Z</time>
      </trkpt>
      <trkpt lat="45.03241" lon="5.84503">
        <ele>1387</ele>
        <time>2022-05-28T12:50:38Z</time>
      </trkpt>
      <trkpt lat="45.03248" lon="5.84481">
        <ele>1386</ele>
        <time>2022-05-28T12:51:01Z</time>
      </trkpt>
      <trkpt lat="45.03247" lon="5.84455">
        <ele>1386</ele>
        <time>2022-05-28T12:51:26Z</time>
      </trkpt>
      <trkpt lat="45.03229" lon="5.84393">
        <ele>1388</ele>
        <time>2022-05-28T12:52:29Z</time>
      </trkpt>
      <trkpt lat="45.03221" lon="5.84351">
        <ele>1390</ele>
        <time>2022-05-28T12:53:10Z</time>
      </trkpt>
      <trkpt lat="45.03222" lon="5.84309">
        <ele>1390</ele>
        <time>2022-05-28T12:53:50Z</time>
      </trkpt>
      <trkpt lat="45.0323" lon="5.8425">
        <ele>1389</ele>
        <time>2022-05-28T12:54:46Z</time>
      </trkpt>
      <trkpt lat="45.0322" lon="5.8419">
        <ele>1387</ele>
        <time>2022-05-28T12:55:44Z</time>
      </trkpt>
      <trkpt lat="45.03199" lon="5.84152">
        <ele>1388</ele>
        <time>2022-05-28T12:56:30Z</time>
      </trkpt>
      <trkpt lat="45.03166" lon="5.84106">
        <ele>1390</ele>
        <time>2022-05-28T12:57:32Z</time>
      </trkpt>
      <trkpt lat="45.0314" lon="5.84052">
        <ele>1387</ele>
        <time>2022-05-28T12:58:33Z</time>
      </trkpt>
      <trkpt lat="45.03115" lon="5.84012">
        <ele>1387</ele>
        <time>2022-05-28T12:59:24Z</time>
      </trkpt>
      <trkpt lat="45.0307" lon="5.83997">
        <ele>1395</ele>
        <time>2022-05-28T13:00:25Z</time>
      </trkpt>
      <trkpt lat="45.03057" lon="5.83988">
        <ele>1395</ele>
        <time>2022-05-28T13:00:45Z</time>
      </trkpt>
      <trkpt lat="45.03019" lon="5.83915">
        <ele>1380</ele>
        <time>2022-05-28T13:02:10Z</time>
      </trkpt>
      <trkpt lat="45.02967" lon="5.83881">
        <ele>1375</ele>
        <time>2022-05-28T13:03:27Z</time>
      </trkpt>
      <trkpt lat="45.02908" lon="5.83872">
        <ele>1373</ele>
        <time>2022-05-28T13:04:46Z</time>
      </trkpt>
      <trkpt lat="45.02848" lon="5.83873">
        <ele>1364</ele>
        <time>2022-05-28T13:06:06Z</time>
      </trkpt>
      <trkpt lat="45.02797" lon="5.83921">
        <ele>1366</ele>
        <time>2022-05-28T13:07:28Z</time>
      </trkpt>
      <trkpt lat="45.02772" lon="5.83964">
        <ele>1370</ele>
        <time>2022-05-28T13:08:20Z</time>
      </trkpt>
      <trkpt lat="45.02748" lon="5.84009">
        <ele>1372</ele>
        <time>2022-05-28T13:09:13Z</time>
      </trkpt>
      <trkpt lat="45.02714" lon="5.8407">
        <ele>1376</ele>
        <time>2022-05-28T13:10:27Z</time>
      </trkpt>
      <trkpt lat="45.02707" lon="5.84104">
        <ele>1379</ele>
        <time>2022-05-28T13:11:00Z</time>
      </trkpt>
      <trkpt lat="45.02678" lon="5.84164">
        <ele>1378</ele>
        <time>2022-05-28T13:12:08Z</time>
      </trkpt>
      <trkpt lat="45.02666" lon="5.84172">
        <ele>1375</ele>
        <time>2022-05-28T13:12:26Z</time>
      </trkpt>
      <trkpt lat="45.02645" lon="5.84173">
        <ele>1369</ele>
        <time>2022-05-28T13:12:54Z</time>
      </trkpt>
      <trkpt lat="45.02646" lon="5.84092">
        <ele>1358</ele>
        <time>2022-05-28T13:14:11Z</time>
      </trkpt>
      <trkpt lat="45.02646" lon="5.84194">
        <ele>1373</ele>
        <time>2022-05-28T13:15:47Z</time>
      </trkpt>
      <trkpt lat="45.02648" lon="5.84241">
        <ele>1380</ele>
        <time>2022-05-28T13:16:31Z</time>
      </trkpt>
      <trkpt lat="45.02638" lon="5.84269">
        <ele>1381</ele>
        <time>2022-05-28T13:17:01Z</time>
      </trkpt>
      <trkpt lat="45.02649" lon="5.84358">
        <ele>1388</ele>
        <time>2022-05-28T13:18:26Z</time>
      </trkpt>
      <trkpt lat="45.02653" lon="5.84444">
        <ele>1394</ele>
        <time>2022-05-28T13:19:47Z</time>
      </trkpt>
      <trkpt lat="45.02652" lon="5.8449">
        <ele>1396</ele>
        <time>2022-05-28T13:20:31Z</time>
      </trkpt>
      <trkpt lat="45.0264" lon="5.8451">
        <ele>1400</ele>
        <time>2022-05-28T13:20:55Z</time>
      </trkpt>
      <trkpt lat="45.02639" lon="5.84532">
        <ele>1402</ele>
        <time>2022-05-28T13:21:16Z</time>
      </trkpt>
      <trkpt lat="45.02655" lon="5.84567">
        <ele>1399</ele>
        <time>2022-05-28T13:21:56Z</time>
      </trkpt>
      <trkpt lat="45.02664" lon="5.84614">
        <ele>1398</ele>
        <time>2022-05-28T13:22:42Z</time>
      </trkpt>
      <trkpt lat="45.02687" lon="5.8469">
        <ele>1401</ele>
        <time>2022-05-28T13:23:59Z</time>
      </trkpt>
      <trkpt lat="45.02697" lon="5.84791">
        <ele>1406</ele>
        <time>2022-05-28T13:25:36Z</time>
      </trkpt>
      <trkpt lat="45.02681" lon="5.84766">
        <ele>1408</ele>
        <time>2022-05-28T13:26:07Z</time>
      </trkpt>
      <trkpt lat="45.02661" lon="5.84702">
        <ele>1407</ele>
        <time>2022-05-28T13:27:13Z</time>
      </trkpt>
      <trkpt lat="45.02612" lon="5.84608">
        <ele>1421</ele>
        <time>2022-05-28T13:29:04Z</time>
      </trkpt>
      <trkpt lat="45.02563" lon="5.84503">
        <ele>1418</ele>
        <time>2022-05-28T13:31:02Z</time>
      </trkpt>
      <trkpt lat="45.0255" lon="5.84486">
        <ele>1418</ele>
        <time>2022-05-28T13:31:26Z</time>
      </trkpt>
      <trkpt lat="45.02537" lon="5.84465">
        <ele>1416</ele>
        <time>2022-05-28T13:31:52Z</time>
      </trkpt>
      <trkpt lat="45.02514" lon="5.84453">
        <ele>1419</ele>
        <time>2022-05-28T13:32:25Z</time>
      </trkpt>
      <trkpt lat="45.02473" lon="5.84454">
        <ele>1423</ele>
        <time>2022-05-28T13:33:20Z</time>
      </trkpt>
      <trkpt lat="45.0245" lon="5.84477">
        <ele>1429</ele>
        <time>2022-05-28T13:33:57Z</time>
      </trkpt>
      <trkpt lat="45.02396" lon="5.84521">
        <ele>1446</ele>
        <time>2022-05-28T13:35:20Z</time>
      </trkpt>
      <trkpt lat="45.02376" lon="5.84527">
        <ele>1448</ele>
        <time>2022-05-28T13:35:48Z</time>
      </trkpt>
      <trkpt lat="45.0235" lon="5.8453">
        <ele>1450</ele>
        <time>2022-05-28T13:36:23Z</time>
      </trkpt>
      <trkpt lat="45.02309" lon="5.84519">
        <ele>1447</ele>
        <time>2022-05-28T13:37:18Z</time>
      </trkpt>
      <trkpt lat="45.0227" lon="5.84518">
        <ele>1449</ele>
        <time>2022-05-28T13:38:10Z</time>
      </trkpt>
      <trkpt lat="45.02231" lon="5.84515">
        <ele>1450</ele>
        <time>2022-05-28T13:39:02Z</time>
      </trkpt>
      <trkpt lat="45.02216" lon="5.84501">
        <ele>1446</ele>
        <time>2022-05-28T13:39:26Z</time>
      </trkpt>
      <trkpt lat="45.02186" lon="5.84488">
        <ele>1444</ele>
        <time>2022-05-28T13:40:08Z</time>
      </trkpt>
      <trkpt lat="45.0216" lon="5.84483">
        <ele>1445</ele>
        <time>2022-05-28T13:40:43Z</time>
      </trkpt>
      <trkpt lat="45.02126" lon="5.84469">
        <ele>1447</ele>
        <time>2022-05-28T13:41:31Z</time>
      </trkpt>
      <trkpt lat="45.02102" lon="5.84447">
        <ele>1445</ele>
        <time>2022-05-28T13:42:09Z</time>
      </trkpt>
      <trkpt lat="45.02087" lon="5.8444">
        <ele>1447</ele>
        <time>2022-05-28T13:42:30Z</time>
      </trkpt>
      <trkpt lat="45.02028" lon="5.84405">
        <ele>1455</ele>
        <time>2022-05-28T13:43:55Z</time>
      </trkpt>
      <trkpt lat="45.02003" lon="5.84385">
        <ele>1458</ele>
        <time>2022-05-28T13:44:33Z</time>
      </trkpt>
      <trkpt lat="45.01989" lon="5.8433">
        <ele>1451</ele>
        <time>2022-05-28T13:45:29Z</time>
      </trkpt>
      <trkpt lat="45.01957" lon="5.84252">
        <ele>1450</ele>
        <time>2022-05-28T13:46:54Z</time>
      </trkpt>
      <trkpt lat="45.01916" lon="5.8422">
        <ele>1461</ele>
        <time>2022-05-28T13:47:56Z</time>
      </trkpt>
      <trkpt lat="45.01899" lon="5.84199">
        <ele>1461</ele>
        <time>2022-05-28T13:48:26Z</time>
      </trkpt>
      <trkpt lat="45.01879" lon="5.84144">
        <ele>1453</ele>
        <time>2022-05-28T13:49:25Z</time>
      </trkpt>
      <trkpt lat="45.01851" lon="5.84128">
        <ele>1458</ele>
        <time>2022-05-28T13:50:05Z</time>
      </trkpt>
      <trkpt lat="45.01812" lon="5.84113">
        <ele>1464</ele>
        <time>2022-05-28T13:50:59Z</time>
      </trkpt>
      <trkpt lat="45.01766" lon="5.84106">
        <ele>1472</ele>
        <time>2022-05-28T13:52:01Z</time>
      </trkpt>
      <trkpt lat="45.01744" lon="5.84072">
        <ele>1472</ele>
        <time>2022-05-28T13:52:44Z</time>
      </trkpt>
      <trkpt lat="45.01728" lon="5.84043">
        <ele>1474</ele>
        <time>2022-05-28T13:53:19Z</time>
      </trkpt>
      <trkpt lat="45.01709" lon="5.83987">
        <ele>1472</ele>
        <time>2022-05-28T13:54:17Z</time>
      </trkpt>
      <trkpt lat="45.01696" lon="5.83965">
        <ele>1473</ele>
        <time>2022-05-28T13:54:44Z</time>
      </trkpt>
      <trkpt lat="45.01671" lon="5.83926">
        <ele>1478</ele>
        <time>2022-05-28T13:55:34Z</time>
      </trkpt>
      <trkpt lat="45.01652" lon="5.83867">
        <ele>1481</ele>
        <time>2022-05-28T13:56:35Z</time>
      </trkpt>
      <trkpt lat="45.01636" lon="5.8378">
        <ele>1481</ele>
        <time>2022-05-28T13:58:00Z</time>
      </trkpt>
      <trkpt lat="45.01618" lon="5.83748">
        <ele>1487</ele>
        <time>2022-05-28T13:58:39Z</time>
      </trkpt>
      <trkpt lat="45.01598" lon="5.83699">
        <ele>1484</ele>
        <time>2022-05-28T13:59:32Z</time>
      </trkpt>
      <trkpt lat="45.01549" lon="5.83647">
        <ele>1482</ele>
        <time>2022-05-28T14:00:54Z</time>
      </trkpt>
      <trkpt lat="45.01496" lon="5.83595">
        <ele>1487</ele>
        <time>2022-05-28T14:02:20Z</time>
      </trkpt>
      <trkpt lat="45.01489" lon="5.83567">
        <ele>1487</ele>
        <time>2022-05-28T14:02:48Z</time>
      </trkpt>
      <trkpt lat="45.01456" lon="5.83538">
        <ele>1491</ele>
        <time>2022-05-28T14:03:40Z</time>
      </trkpt>
      <trkpt lat="45.01407" lon="5.83502">
        <ele>1493</ele>
        <time>2022-05-28T14:04:53Z</time>
      </trkpt>
      <trkpt lat="45.01371" lon="5.83442">
        <ele>1486</ele>
        <time>2022-05-28T14:06:08Z</time>
      </trkpt>
      <trkpt lat="45.01345" lon="5.83386">
        <ele>1480</ele>
        <time>2022-05-28T14:07:11Z</time>
      </trkpt>
      <trkpt lat="45.01306" lon="5.83364">
        <ele>1489</ele>
        <time>2022-05-28T14:08:07Z</time>
      </trkpt>
      <trkpt lat="45.01284" lon="5.83346">
        <ele>1495</ele>
        <time>2022-05-28T14:08:41Z</time>
      </trkpt>
      <trkpt lat="45.01285" lon="5.83327">
        <ele>1492</ele>
        <time>2022-05-28T14:08:59Z</time>
      </trkpt>
      <trkpt lat="45.01293" lon="5.83359">
        <ele>1493</ele>
        <time>2022-05-28T14:09:31Z</time>
      </trkpt>
      <trkpt lat="45.01311" lon="5.83385">
        <ele>1491</ele>
        <time>2022-05-28T14:10:05Z</time>
      </trkpt>
      <trkpt lat="45.01334" lon="5.83404">
        <ele>1487</ele>
        <time>2022-05-28T14:10:41Z</time>
      </trkpt>
      <trkpt lat="45.01361" lon="5.83456">
        <ele>1493</ele>
        <time>2022-05-28T14:11:42Z</time>
      </trkpt>
      <trkpt lat="45.0139" lon="5.83503">
        <ele>1499</ele>
        <time>2022-05-28T14:12:40Z</time>
      </trkpt>
      <trkpt lat="45.01409" lon="5.83538">
        <ele>1502</ele>
        <time>2022-05-28T14:13:22Z</time>
      </trkpt>
      <trkpt lat="45.01416" lon="5.83557">
        <ele>1503</ele>
        <time>2022-05-28T14:13:42Z</time>
      </trkpt>
      <trkpt lat="45.0144" lon="5.83608">
        <ele>1508</ele>
        <time>2022-05-28T14:14:40Z</time>
      </trkpt>
      <trkpt lat="45.01451" lon="5.8363">
        <ele>1509</ele>
        <time>2022-05-28T14:15:05Z</time>
      </trkpt>
      <trkpt lat="45.01453" lon="5.83667">
        <ele>1515</ele>
        <time>2022-05-28T14:15:40Z</time>
      </trkpt>
      <trkpt lat="45.01455" lon="5.83729">
        <ele>1531</ele>
        <time>2022-05-28T14:16:39Z</time>
      </trkpt>
      <trkpt lat="45.01481" lon="5.83781">
        <ele>1534</ele>
        <time>2022-05-28T14:17:39Z</time>
      </trkpt>
      <trkpt lat="45.01503" lon="5.83836">
        <ele>1540</ele>
        <time>2022-05-28T14:18:39Z</time>
      </trkpt>
      <trkpt lat="45.0151" lon="5.83896">
        <ele>1547</ele>
        <time>2022-05-28T14:19:36Z</time>
      </trkpt>
      <trkpt lat="45.01518" lon="5.8396">
        <ele>1555</ele>
        <time>2022-05-28T14:20:37Z</time>
      </trkpt>
      <trkpt lat="45.01523" lon="5.84023">
        <ele>1564</ele>
        <time>2022-05-28T14:21:37Z</time>
      </trkpt>
      <trkpt lat="45.01542" lon="5.8408">
        <ele>1564</ele>
        <time>2022-05-28T14:22:37Z</time>
      </trkpt>
      <trkpt lat="45.01548" lon="5.84138">
        <ele>1571</ele>
        <time>2022-05-28T14:23:32Z</time>
      </trkpt>
      <trkpt lat="45.01528" lon="5.841">
        <ele>1574</ele>
        <time>2022-05-28T14:24:17Z</time>
      </trkpt>
      <trkpt lat="45.01505" lon="5.84045">
        <ele>1574</ele>
        <time>2022-05-28T14:25:17Z</time>
      </trkpt>
      <trkpt lat="45.01481" lon="5.84003">
        <ele>1577</ele>
        <time>2022-05-28T14:26:08Z</time>
      </trkpt>
      <trkpt lat="45.01443" lon="5.83963">
        <ele>1582</ele>
        <time>2022-05-28T14:27:11Z</time>
      </trkpt>
      <trkpt lat="45.01396" lon="5.83941">
        <ele>1592</ele>
        <time>2022-05-28T14:28:17Z</time>
      </trkpt>
      <trkpt lat="45.01361" lon="5.83945">
        <ele>1601</ele>
        <time>2022-05-28T14:29:04Z</time>
      </trkpt>
      <trkpt lat="45.01297" lon="5.83938">
        <ele>1624</ele>
        <time>2022-05-28T14:30:30Z</time>
      </trkpt>
      <trkpt lat="45.01288" lon="5.83866">
        <ele>1626</ele>
        <time>2022-05-28T14:31:39Z</time>
      </trkpt>
      <trkpt lat="45.01294" lon="5.83804">
        <ele>1621</ele>
        <time>2022-05-28T14:32:38Z</time>
      </trkpt>
      <trkpt lat="45.0129" lon="5.83874">
        <ele>1625</ele>
        <time>2022-05-28T14:33:44Z</time>
      </trkpt>
      <trkpt lat="45.01295" lon="5.83935">
        <ele>1624</ele>
        <time>2022-05-28T14:34:42Z</time>
      </trkpt>
      <trkpt lat="45.01359" lon="5.83945">
        <ele>1602</ele>
        <time>2022-05-28T14:36:08Z</time>
      </trkpt>
      <trkpt lat="45.01397" lon="5.83941">
        <ele>1592</ele>
        <time>2022-05-28T14:36:59Z</time>
      </trkpt>
      <trkpt lat="45.01443" lon="5.83968">
        <ele>1583</ele>
        <time>2022-05-28T14:38:05Z</time>
      </trkpt>
      <trkpt lat="45.01483" lon="5.84003">
        <ele>1576</ele>
        <time>2022-05-28T14:39:08Z</time>
      </trkpt>
      <trkpt lat="45.01508" lon="5.84054">
        <ele>1575</ele>
        <time>2022-05-28T14:40:06Z</time>
      </trkpt>
      <trkpt lat="45.01551" lon="5.84153">
        <ele>1572</ele>
        <time>2022-05-28T14:41:56Z</time>
      </trkpt>
      <trkpt lat="45.01559" lon="5.84177">
        <ele>1573</ele>
        <time>2022-05-28T14:42:21Z</time>
      </trkpt>
      <trkpt lat="45.01584" lon="5.84213">
        <ele>1567</ele>
        <time>2022-05-28T14:43:09Z</time>
      </trkpt>
      <trkpt lat="45.01611" lon="5.84273">
        <ele>1570</ele>
        <time>2022-05-28T14:44:16Z</time>
      </trkpt>
      <trkpt lat="45.01645" lon="5.84313">
        <ele>1567</ele>
        <time>2022-05-28T14:45:15Z</time>
      </trkpt>
      <trkpt lat="45.01662" lon="5.84335">
        <ele>1566</ele>
        <time>2022-05-28T14:45:45Z</time>
      </trkpt>
      <trkpt lat="45.01677" lon="5.84363">
        <ele>1564</ele>
        <time>2022-05-28T14:46:19Z</time>
      </trkpt>
      <trkpt lat="45.01701" lon="5.84403">
        <ele>1562</ele>
        <time>2022-05-28T14:47:08Z</time>
      </trkpt>
      <trkpt lat="45.01752" lon="5.8443">
        <ele>1551</ele>
        <time>2022-05-28T14:48:21Z</time>
      </trkpt>
      <trkpt lat="45.01817" lon="5.84447">
        <ele>1542</ele>
        <time>2022-05-28T14:49:49Z</time>
      </trkpt>
      <trkpt lat="45.01846" lon="5.84448">
        <ele>1534</ele>
        <time>2022-05-28T14:50:28Z</time>
      </trkpt>
      <trkpt lat="45.01858" lon="5.84459">
        <ele>1532</ele>
        <time>2022-05-28T14:50:47Z</time>
      </trkpt>
      <trkpt lat="45.01868" lon="5.84497">
        <ele>1536</ele>
        <time>2022-05-28T14:51:25Z</time>
      </trkpt>
      <trkpt lat="45.0191" lon="5.84507">
        <ele>1524</ele>
        <time>2022-05-28T14:52:22Z</time>
      </trkpt>
      <trkpt lat="45.01957" lon="5.84523">
        <ele>1509</ele>
        <time>2022-05-28T14:53:26Z</time>
      </trkpt>
      <trkpt lat="45.02006" lon="5.84529">
        <ele>1492</ele>
        <time>2022-05-28T14:54:32Z</time>
      </trkpt>
      <trkpt lat="45.02049" lon="5.84529">
        <ele>1477</ele>
        <time>2022-05-28T14:55:29Z</time>
      </trkpt>
      <trkpt lat="45.0209" lon="5.84523">
        <ele>1465</ele>
        <time>2022-05-28T14:56:24Z</time>
      </trkpt>
      <trkpt lat="45.02206" lon="5.84509">
        <ele>1449</ele>
        <time>2022-05-28T14:59:00Z</time>
      </trkpt>
      <trkpt lat="45.02251" lon="5.84516">
        <ele>1449</ele>
        <time>2022-05-28T15:00:00Z</time>
      </trkpt>
      <trkpt lat="45.02296" lon="5.84514">
        <ele>1446</ele>
        <time>2022-05-28T15:01:00Z</time>
      </trkpt>
      <trkpt lat="45.02338" lon="5.84529">
        <ele>1449</ele>
        <time>2022-05-28T15:01:58Z</time>
      </trkpt>
      <trkpt lat="45.02375" lon="5.84531">
        <ele>1450</ele>
        <time>2022-05-28T15:02:47Z</time>
      </trkpt>
      <trkpt lat="45.02436" lon="5.84492">
        <ele>1433</ele>
        <time>2022-05-28T15:04:17Z</time>
      </trkpt>
      <trkpt lat="45.02461" lon="5.84465">
        <ele>1426</ele>
        <time>2022-05-28T15:04:59Z</time>
      </trkpt>
      <trkpt lat="45.02469" lon="5.84481">
        <ele>1430</ele>
        <time>2022-05-28T15:05:17Z</time>
      </trkpt>
      <trkpt lat="45.02481" lon="5.84483">
        <ele>1431</ele>
        <time>2022-05-28T15:05:33Z</time>
      </trkpt>
      <trkpt lat="45.02508" lon="5.84495">
        <ele>1432</ele>
        <time>2022-05-28T15:06:11Z</time>
      </trkpt>
      <trkpt lat="45.02531" lon="5.84539">
        <ele>1436</ele>
        <time>2022-05-28T15:07:03Z</time>
      </trkpt>
      <trkpt lat="45.02542" lon="5.84574">
        <ele>1440</ele>
        <time>2022-05-28T15:07:39Z</time>
      </trkpt>
      <trkpt lat="45.02549" lon="5.84606">
        <ele>1444</ele>
        <time>2022-05-28T15:08:10Z</time>
      </trkpt>
      <trkpt lat="45.02545" lon="5.8464">
        <ele>1452</ele>
        <time>2022-05-28T15:08:43Z</time>
      </trkpt>
      <trkpt lat="45.02542" lon="5.84715">
        <ele>1460</ele>
        <time>2022-05-28T15:09:54Z</time>
      </trkpt>
      <trkpt lat="45.02543" lon="5.84791">
        <ele>1467</ele>
        <time>2022-05-28T15:11:06Z</time>
      </trkpt>
      <trkpt lat="45.02541" lon="5.84854">
        <ele>1475</ele>
        <time>2022-05-28T15:12:05Z</time>
      </trkpt>
      <trkpt lat="45.02538" lon="5.84886">
        <ele>1478</ele>
        <time>2022-05-28T15:12:35Z</time>
      </trkpt>
      <trkpt lat="45.02529" lon="5.84936">
        <ele>1481</ele>
        <time>2022-05-28T15:13:24Z</time>
      </trkpt>
      <trkpt lat="45.02514" lon="5.84992">
        <ele>1483</ele>
        <time>2022-05-28T15:14:21Z</time>
      </trkpt>
      <trkpt lat="45.0248" lon="5.85106">
        <ele>1488</ele>
        <time>2022-05-28T15:16:17Z</time>
      </trkpt>
      <trkpt lat="45.02436" lon="5.85182">
        <ele>1497</ele>
        <time>2022-05-28T15:17:50Z</time>
      </trkpt>
      <trkpt lat="45.02384" lon="5.85247">
        <ele>1512</ele>
        <time>2022-05-28T15:19:23Z</time>
      </trkpt>
      <trkpt lat="45.0233" lon="5.85324">
        <ele>1525</ele>
        <time>2022-05-28T15:21:05Z</time>
      </trkpt>
      <trkpt lat="45.0229" lon="5.85389">
        <ele>1531</ele>
        <time>2022-05-28T15:22:26Z</time>
      </trkpt>
      <trkpt lat="45.02274" lon="5.85427">
        <ele>1531</ele>
        <time>2022-05-28T15:23:08Z</time>
      </trkpt>
      <trkpt lat="45.0224" lon="5.8549">
        <ele>1527</ele>
        <time>2022-05-28T15:24:23Z</time>
      </trkpt>
      <trkpt lat="45.02215" lon="5.8552">
        <ele>1520</ele>
        <time>2022-05-28T15:25:06Z</time>
      </trkpt>
      <trkpt lat="45.02149" lon="5.85522">
        <ele>1523</ele>
        <time>2022-05-28T15:26:35Z</time>
      </trkpt>
      <trkpt lat="45.0208" lon="5.85639">
        <ele>1508</ele>
        <time>2022-05-28T15:28:58Z</time>
      </trkpt>
      <trkpt lat="45.02062" lon="5.85738">
        <ele>1489</ele>
        <time>2022-05-28T15:30:35Z</time>
      </trkpt>
      <trkpt lat="45.02091" lon="5.85769">
        <ele>1478</ele>
        <time>2022-05-28T15:31:23Z</time>
      </trkpt>
      <trkpt lat="45.0211" lon="5.8578">
        <ele>1472</ele>
        <time>2022-05-28T15:31:51Z</time>
      </trkpt>
      <trkpt lat="45.02136" lon="5.85788">
        <ele>1465</ele>
        <time>2022-05-28T15:32:26Z</time>
      </trkpt>
      <trkpt lat="45.02164" lon="5.8578">
        <ele>1460</ele>
        <time>2022-05-28T15:33:04Z</time>
      </trkpt>
      <trkpt lat="45.02183" lon="5.85777">
        <ele>1455</ele>
        <time>2022-05-28T15:33:30Z</time>
      </trkpt>
      <trkpt lat="45.0223" lon="5.85772">
        <ele>1443</ele>
        <time>2022-05-28T15:34:33Z</time>
      </trkpt>
      <trkpt lat="45.02279" lon="5.85766">
        <ele>1433</ele>
        <time>2022-05-28T15:35:38Z</time>
      </trkpt>
      <trkpt lat="45.02324" lon="5.85772">
        <ele>1423</ele>
        <time>2022-05-28T15:36:39Z</time>
      </trkpt>
      <trkpt lat="45.02365" lon="5.85771">
        <ele>1412</ele>
        <time>2022-05-28T15:37:33Z</time>
      </trkpt>
      <trkpt lat="45.02402" lon="5.85771">
        <ele>1402</ele>
        <time>2022-05-28T15:38:23Z</time>
      </trkpt>
      <trkpt lat="45.02433" lon="5.85788">
        <ele>1391</ele>
        <time>2022-05-28T15:39:07Z</time>
      </trkpt>
      <trkpt lat="45.02468" lon="5.85807">
        <ele>1381</ele>
        <time>2022-05-28T15:39:57Z</time>
      </trkpt>
      <trkpt lat="45.02507" lon="5.85827">
        <ele>1374</ele>
        <time>2022-05-28T15:40:52Z</time>
      </trkpt>
      <trkpt lat="45.0255" lon="5.85841">
        <ele>1370</ele>
        <time>2022-05-28T15:41:51Z</time>
      </trkpt>
      <trkpt lat="45.02637" lon="5.85859">
        <ele>1365</ele>
        <time>2022-05-28T15:43:49Z</time>
      </trkpt>
      <trkpt lat="45.02672" lon="5.85839">
        <ele>1365</ele>
        <time>2022-05-28T15:44:39Z</time>
      </trkpt>
      <trkpt lat="45.02706" lon="5.85803">
        <ele>1362</ele>
        <time>2022-05-28T15:45:36Z</time>
      </trkpt>
      <trkpt lat="45.02769" lon="5.85797">
        <ele>1359</ele>
        <time>2022-05-28T15:47:00Z</time>
      </trkpt>
      <trkpt lat="45.02791" lon="5.85764">
        <ele>1359</ele>
        <time>2022-05-28T15:47:43Z</time>
      </trkpt>
      <trkpt lat="45.02801" lon="5.85788">
        <ele>1360</ele>
        <time>2022-05-28T15:48:09Z</time>
      </trkpt>
      <trkpt lat="45.02837" lon="5.8579">
        <ele>1361</ele>
        <time>2022-05-28T15:48:57Z</time>
      </trkpt>
    </trkseg>
  </trk>
</gpx>